Time,TemperatureF,DewpointF,PressureIn,WindDirection,WindDirectionDegrees,WindSpeedMPH,WindSpeedGustMPH,Humidity,HourlyPrecipIn,Conditions,Clouds,dailyrainin,SoftwareType,DateUTC
2013-06-19 00:01:00,80.3,76.1,30.03,SSE,164,0.0,0.0,87,0.00,CLR,,0.00,WeatherDisplay:10.37,2013-06-19 04:01:00,
2013-06-19 00:06:00,80.3,76.1,30.04,SSE,164,0.0,0.0,87,0.00,CLR,,0.00,WeatherDisplay:10.37,2013-06-19 04:06:00,
2013-06-19 00:11:00,80.3,76.4,30.03,SSE,164,0.1,1.2,88,0.00,CLR,,0.00,WeatherDisplay:10.37,2013-06-19 04:11:00,
2013-06-19 00:16:00,80.2,76.3,30.03,SSE,164,0.7,1.2,88,0.00,CLR,,0.00,WeatherDisplay:10.37,2013-06-19 04:16:00,
2013-06-19 00:21:00,80.1,76.6,30.03,SSE,164,0.0,0.0,89,0.00,CLR,,0.00,WeatherDisplay:10.37,2013-06-19 04:21:00,
2013-06-19 00:26:00,80.0,76.5,30.03,SSE,164,0.0,0.0,89,0.00,CLR,,0.00,WeatherDisplay:10.37,2013-06-19 04:26:00,
2013-06-19 00:31:00,79.9,76.4,30.03,SSE,164,0.0,0.0,89,0.00,CLR,,0.00,WeatherDisplay:10.37,2013-06-19 04:31:00,
2013-06-19 00:36:00,79.8,76.3,30.03,SSE,164,0.0,0.0,89,0.00,CLR,,0.00,WeatherDisplay:10.37,2013-06-19 04:36:00,
2013-06-19 00:41:00,79.7,76.5,30.03,SSE,164,0.0,0.0,90,0.00,CLR,,0.00,WeatherDisplay:10.37,2013-06-19 04:41:00,
2013-06-19 00:46:00,79.5,76.3,30.02,SSE,164,0.0,0.0,90,0.00,CLR,,0.00,WeatherDisplay:10.37,2013-06-19 04:46:00,
2013-06-19 00:51:00,79.4,76.5,30.02,SSE,164,0.0,0.0,91,0.00,CLR,,0.00,WeatherDisplay:10.37,2013-06-19 04:51:00,
2013-06-19 00:56:00,79.3,76.1,30.01,SSE,164,1.6,2.3,90,0.00,CLR,,0.00,WeatherDisplay:10.37,2013-06-19 04:56:00,
2013-06-19 01:01:00,79.4,76.2,30.01,SSE,164,0.7,1.2,90,0.00,CLR,,0.00,WeatherDisplay:10.37,2013-06-19 05:01:00,
2013-06-19 01:06:00,79.4,75.9,30.01,SSE,164,0.3,2.3,89,0.00,CLR,,0.00,WeatherDisplay:10.37,2013-06-19 05:06:00,
2013-06-19 01:11:00,79.6,76.1,30.01,SSE,164,0.5,1.2,89,0.00,CLR,,0.00,WeatherDisplay:10.37,2013-06-19 05:11:00,
2013-06-19 01:16:00,79.7,76.2,30.01,SSE,164,1.3,2.3,89,0.00,CLR,,0.00,WeatherDisplay:10.37,2013-06-19 05:16:00,
2013-06-19 01:21:00,79.8,75.9,30.01,SSE,164,0.0,0.0,88,0.00,CLR,,0.00,WeatherDisplay:10.37,2013-06-19 05:21:00,
2013-06-19 01:26:00,79.7,75.8,30.01,SSE,164,0.0,0.0,88,0.00,CLR,,0.00,WeatherDisplay:10.37,2013-06-19 05:26:00,
2013-06-19 01:31:00,79.8,76.6,30.01,SSE,164,0.0,0.0,90,0.00,CLR,,0.00,WeatherDisplay:10.37,2013-06-19 05:31:00,
2013-06-19 01:36:00,79.7,76.5,30.01,SSE,164,0.0,0.0,90,0.00,CLR,,0.00,WeatherDisplay:10.37,2013-06-19 05:36:00,
2013-06-19 01:41:00,79.5,76.3,30.00,SSE,164,0.0,0.0,90,0.00,CLR,,0.00,WeatherDisplay:10.37,2013-06-19 05:41:00,
2013-06-19 01:46:00,79.3,75.8,30.00,SSE,164,0.0,0.0,89,0.00,CLR,,0.00,WeatherDisplay:10.37,2013-06-19 05:46:00,
2013-06-19 01:52:00,79.1,75.6,30.00,SSE,164,0.0,0.0,89,0.00,CLR,,0.00,WeatherDisplay:10.37,2013-06-19 05:52:00,
2013-06-19 01:57:00,78.9,75.4,30.00,SSE,164,0.0,0.0,89,0.00,CLR,,0.00,WeatherDisplay:10.37,2013-06-19 05:57:00,
2013-06-19 02:02:00,78.9,75.7,30.00,SSE,164,0.0,0.0,90,0.00,CLR,,0.00,WeatherDisplay:10.37,2013-06-19 06:02:00,
2013-06-19 02:07:00,79.1,76.6,30.00,SSE,164,0.0,0.0,92,0.00,CLR,,0.00,WeatherDisplay:10.37,2013-06-19 06:07:00,
2013-06-19 02:12:00,79.2,76.7,30.00,SSE,164,0.0,0.0,92,0.00,CLR,,0.00,WeatherDisplay:10.37,2013-06-19 06:12:00,
2013-06-19 02:17:00,79.1,76.2,30.00,SSE,164,0.0,0.0,91,0.00,CLR,,0.00,WeatherDisplay:10.37,2013-06-19 06:17:00,
2013-06-19 02:22:00,79.0,76.1,30.00,SSE,164,0.0,0.0,91,0.00,CLR,,0.00,WeatherDisplay:10.37,2013-06-19 06:22:00,
2013-06-19 02:27:00,78.8,75.9,30.01,SSE,164,0.0,0.0,91,0.00,CLR,,0.00,WeatherDisplay:10.37,2013-06-19 06:27:00,
2013-06-19 02:32:00,78.7,75.8,30.01,SSE,164,0.0,0.0,91,0.00,CLR,,0.00,WeatherDisplay:10.37,2013-06-19 06:32:00,
2013-06-19 02:37:00,78.7,76.2,30.01,SSE,164,0.0,0.0,92,0.00,CLR,,0.00,WeatherDisplay:10.37,2013-06-19 06:37:00,
2013-06-19 02:42:00,78.6,75.8,30.01,SSE,164,0.0,0.0,91,0.00,CLR,,0.00,WeatherDisplay:10.37,2013-06-19 06:42:00,
2013-06-19 02:47:00,78.5,76.0,30.01,SSE,164,0.0,0.0,92,0.00,CLR,,0.00,WeatherDisplay:10.37,2013-06-19 06:47:00,
2013-06-19 02:52:00,78.6,76.1,30.02,SSE,164,0.0,0.0,92,0.00,CLR,,0.00,WeatherDisplay:10.37,2013-06-19 06:52:00,
2013-06-19 02:57:00,78.5,75.7,30.02,SSE,164,0.2,0.0,91,0.00,CLR,,0.00,WeatherDisplay:10.37,2013-06-19 06:57:00,
2013-06-19 03:02:00,78.5,75.7,30.02,SSE,164,0.0,1.2,91,0.00,CLR,,0.00,WeatherDisplay:10.37,2013-06-19 07:02:00,
2013-06-19 03:07:00,78.5,76.0,30.02,SSE,164,0.0,0.0,92,0.00,CLR,,0.00,WeatherDisplay:10.37,2013-06-19 07:07:00,
2013-06-19 03:12:00,78.5,76.0,30.02,SSE,164,0.0,0.0,92,0.00,CLR,,0.00,WeatherDisplay:10.37,2013-06-19 07:12:00,
2013-06-19 03:17:00,78.7,76.2,30.02,SSE,164,0.0,0.0,92,0.00,CLR,,0.00,WeatherDisplay:10.37,2013-06-19 07:17:00,
2013-06-19 03:22:00,78.6,76.1,30.02,SSE,164,0.0,0.0,92,0.00,CLR,,0.00,WeatherDisplay:10.37,2013-06-19 07:22:00,
2013-06-19 03:27:00,78.5,76.0,30.02,SSE,164,0.0,0.0,92,0.00,CLR,,0.00,WeatherDisplay:10.37,2013-06-19 07:27:00,
2013-06-19 03:32:00,78.5,76.0,30.02,SSE,164,0.0,0.0,92,0.00,CLR,,0.00,WeatherDisplay:10.37,2013-06-19 07:32:00,
2013-06-19 03:37:00,78.5,76.0,30.02,SSE,164,0.0,0.0,92,0.00,CLR,,0.00,WeatherDisplay:10.37,2013-06-19 07:37:00,
2013-06-19 03:42:00,78.4,75.9,30.01,SSE,164,0.0,0.0,92,0.00,CLR,,0.00,WeatherDisplay:10.37,2013-06-19 07:42:00,
2013-06-19 03:47:00,78.5,76.0,30.01,SSE,164,0.0,0.0,92,0.00,CLR,,0.00,WeatherDisplay:10.37,2013-06-19 07:47:00,
2013-06-19 03:52:00,78.6,76.4,30.01,SSE,164,0.0,0.0,93,0.00,CLR,,0.00,WeatherDisplay:10.37,2013-06-19 07:52:00,
2013-06-19 03:57:00,78.9,77.0,30.01,SSE,164,0.0,0.0,94,0.00,CLR,,0.00,WeatherDisplay:10.37,2013-06-19 07:57:00,
2013-06-19 04:02:00,78.9,76.7,30.01,SSE,164,0.0,0.0,93,0.00,CLR,,0.00,WeatherDisplay:10.37,2013-06-19 08:02:00,
2013-06-19 04:07:00,78.7,76.5,30.01,SSE,164,0.0,0.0,93,0.00,CLR,,0.00,WeatherDisplay:10.37,2013-06-19 08:07:00,
2013-06-19 04:12:00,78.6,76.4,30.02,SSE,164,0.0,0.0,93,0.00,CLR,,0.00,WeatherDisplay:10.37,2013-06-19 08:12:00,
2013-06-19 04:17:00,78.5,76.3,30.02,SSE,164,0.0,0.0,93,0.00,CLR,,0.00,WeatherDisplay:10.37,2013-06-19 08:17:00,
2013-06-19 04:22:00,78.3,76.1,30.02,SSE,164,0.0,0.0,93,0.00,CLR,,0.00,WeatherDisplay:10.37,2013-06-19 08:22:00,
2013-06-19 04:27:00,78.2,76.0,30.02,SSE,164,0.0,0.0,93,0.00,CLR,,0.00,WeatherDisplay:10.37,2013-06-19 08:27:00,
2013-06-19 04:32:00,78.0,75.8,30.02,SSE,164,0.0,0.0,93,0.00,CLR,,0.00,WeatherDisplay:10.37,2013-06-19 08:32:00,
2013-06-19 04:37:00,77.8,75.6,30.01,SSE,164,0.0,0.0,93,0.00,CLR,,0.00,WeatherDisplay:10.37,2013-06-19 08:37:00,
2013-06-19 04:42:00,77.7,75.5,30.01,SSE,164,0.0,0.0,93,0.00,CLR,,0.00,WeatherDisplay:10.37,2013-06-19 08:42:00,
2013-06-19 04:47:00,77.7,75.5,30.01,SSE,164,0.0,0.0,93,0.00,CLR,,0.00,WeatherDisplay:10.37,2013-06-19 08:47:00,
2013-06-19 04:52:00,77.8,75.9,30.01,SSE,164,0.0,0.0,94,0.00,CLR,,0.00,WeatherDisplay:10.37,2013-06-19 08:52:00,
2013-06-19 04:57:00,78.1,76.2,30.01,SSE,164,0.0,0.0,94,0.00,CLR,,0.00,WeatherDisplay:10.37,2013-06-19 08:57:00,
2013-06-19 05:02:00,78.1,76.6,30.01,SSE,164,0.0,0.0,95,0.00,CLR,,0.00,WeatherDisplay:10.37,2013-06-19 09:02:00,
2013-06-19 05:07:00,78.2,76.6,30.00,SSE,164,0.0,0.0,95,0.00,CLR,,0.00,WeatherDisplay:10.37,2013-06-19 09:07:00,
2013-06-19 05:12:00,78.2,76.6,30.00,SSE,164,0.0,0.0,95,0.00,CLR,,0.00,WeatherDisplay:10.37,2013-06-19 09:12:00,
2013-06-19 05:17:00,78.3,76.7,30.00,SSE,164,0.0,0.0,95,0.00,CLR,,0.00,WeatherDisplay:10.37,2013-06-19 09:17:00,
2013-06-19 05:22:00,78.2,76.6,30.00,SSE,164,0.0,0.0,95,0.00,CLR,,0.00,WeatherDisplay:10.37,2013-06-19 09:22:00,
2013-06-19 05:27:00,78.0,76.1,29.99,SSE,164,0.0,0.0,94,0.00,CLR,,0.00,WeatherDisplay:10.37,2013-06-19 09:27:00,
2013-06-19 05:32:00,78.1,76.6,29.99,SSE,164,0.0,0.0,95,0.00,CLR,,0.00,WeatherDisplay:10.37,2013-06-19 09:32:00,
2013-06-19 05:37:00,78.2,76.6,29.99,SSE,164,0.2,1.2,95,0.00,CLR,,0.00,WeatherDisplay:10.37,2013-06-19 09:37:00,
2013-06-19 05:42:00,78.2,76.6,29.99,SSE,164,0.0,0.0,95,0.00,CLR,,0.00,WeatherDisplay:10.37,2013-06-19 09:42:00,
2013-06-19 05:47:00,78.2,76.6,29.99,SSE,164,0.0,0.0,95,0.00,CLR,,0.00,WeatherDisplay:10.37,2013-06-19 09:47:00,
2013-06-19 05:52:00,78.2,76.6,29.99,SSE,164,0.0,0.0,95,0.00,CLR,,0.00,WeatherDisplay:10.37,2013-06-19 09:52:00,
2013-06-19 05:57:00,78.2,76.6,30.00,SSE,164,0.0,0.0,95,0.00,CLR,,0.00,WeatherDisplay:10.37,2013-06-19 09:57:00,
2013-06-19 06:02:00,78.2,76.6,30.00,SSE,164,0.0,0.0,95,0.00,CLR,,0.00,WeatherDisplay:10.37,2013-06-19 10:02:00,
2013-06-19 06:07:00,78.3,76.7,30.00,SSE,164,0.0,0.0,95,0.00,CLR,,0.00,WeatherDisplay:10.37,2013-06-19 10:07:00,
2013-06-19 06:12:00,78.3,76.7,30.00,SSE,164,0.0,0.0,95,0.00,CLR,,0.00,WeatherDisplay:10.37,2013-06-19 10:12:00,
2013-06-19 06:17:00,78.5,76.9,30.00,SSE,164,0.0,0.0,95,0.00,CLR,,0.00,WeatherDisplay:10.37,2013-06-19 10:17:00,
2013-06-19 06:22:00,78.4,76.8,30.00,SSE,164,0.0,0.0,95,0.00,CLR,,0.00,WeatherDisplay:10.37,2013-06-19 10:22:00,
2013-06-19 06:27:00,78.4,76.8,30.00,SSE,164,0.0,0.0,95,0.00,CLR,,0.00,WeatherDisplay:10.37,2013-06-19 10:27:00,
2013-06-19 06:32:00,78.4,76.8,30.01,SSE,164,0.0,0.0,95,0.00,CLR,,0.00,WeatherDisplay:10.37,2013-06-19 10:32:00,
2013-06-19 06:37:00,78.2,76.6,30.01,SSE,164,0.0,0.0,95,0.00,CLR,,0.00,WeatherDisplay:10.37,2013-06-19 10:37:00,
2013-06-19 06:43:00,78.0,76.5,30.01,SSE,164,0.0,0.0,95,0.00,CLR,,0.00,WeatherDisplay:10.37,2013-06-19 10:43:00,
2013-06-19 06:47:00,77.9,76.4,30.01,SSE,164,0.0,0.0,95,0.00,CLR,,0.00,WeatherDisplay:10.37,2013-06-19 10:47:00,
2013-06-19 06:53:00,78.2,77.0,30.01,SSE,164,0.0,0.0,96,0.00,CLR,,0.00,WeatherDisplay:10.37,2013-06-19 10:53:00,
2013-06-19 06:58:00,78.5,77.3,30.01,SSE,164,0.0,0.0,96,0.00,CLR,,0.00,WeatherDisplay:10.37,2013-06-19 10:58:00,
2013-06-19 07:03:00,78.5,76.9,30.02,SSE,164,0.0,0.0,95,0.00,CLR,,0.00,WeatherDisplay:10.37,2013-06-19 11:03:00,
2013-06-19 07:08:00,78.5,76.9,30.02,SSE,164,0.0,0.0,95,0.00,CLR,,0.00,WeatherDisplay:10.37,2013-06-19 11:08:00,
2013-06-19 07:13:00,78.5,76.9,30.02,SSE,164,0.0,0.0,95,0.00,CLR,,0.00,WeatherDisplay:10.37,2013-06-19 11:13:00,
2013-06-19 07:18:00,78.5,76.9,30.03,SSE,164,0.6,3.5,95,0.00,CLR,,0.00,WeatherDisplay:10.37,2013-06-19 11:18:00,
2013-06-19 07:23:00,78.5,76.9,30.03,SSE,164,1.0,1.2,95,0.00,CLR,,0.00,WeatherDisplay:10.37,2013-06-19 11:23:00,
2013-06-19 07:28:00,78.6,76.7,30.03,SSE,164,0.0,0.0,94,0.00,CLR,,0.00,WeatherDisplay:10.37,2013-06-19 11:28:00,
2013-06-19 07:33:00,78.8,76.9,30.03,SSE,164,0.0,0.0,94,0.00,CLR,,0.00,WeatherDisplay:10.37,2013-06-19 11:33:00,
2013-06-19 07:38:00,78.9,76.7,30.04,SSE,164,0.0,0.0,93,0.00,CLR,,0.00,WeatherDisplay:10.37,2013-06-19 11:38:00,
2013-06-19 07:43:00,79.4,77.5,30.03,SSE,164,0.0,0.0,94,0.00,CLR,,0.00,WeatherDisplay:10.37,2013-06-19 11:43:00,
2013-06-19 07:48:00,80.1,78.2,30.04,SSE,164,0.0,0.0,94,0.00,CLR,,0.00,WeatherDisplay:10.37,2013-06-19 11:48:00,
2013-06-19 07:53:00,80.8,77.9,30.04,SSE,164,0.0,0.0,91,0.00,CLR,,0.00,WeatherDisplay:10.37,2013-06-19 11:53:00,
2013-06-19 07:58:00,81.5,77.3,30.04,SSE,164,0.0,0.0,87,0.00,CLR,,0.00,WeatherDisplay:10.37,2013-06-19 11:58:00,
2013-06-19 08:03:00,82.1,77.5,30.04,SSE,164,0.0,0.0,86,0.00,CLR,,0.00,WeatherDisplay:10.37,2013-06-19 12:03:00,
2013-06-19 08:08:00,82.5,77.5,30.04,SSE,164,0.0,0.0,85,0.00,CLR,,0.00,WeatherDisplay:10.37,2013-06-19 12:08:00,
2013-06-19 08:13:00,83.1,77.4,30.04,SSE,164,0.5,2.3,83,0.00,CLR,,0.00,WeatherDisplay:10.37,2013-06-19 12:13:00,
2013-06-19 08:18:00,83.2,77.1,30.04,SSE,164,1.8,3.5,82,0.00,CLR,,0.00,WeatherDisplay:10.37,2013-06-19 12:18:00,
2013-06-19 08:23:00,83.2,77.1,30.04,SSE,164,0.7,2.3,82,0.00,CLR,,0.00,WeatherDisplay:10.37,2013-06-19 12:23:00,
2013-06-19 08:28:00,83.6,77.9,30.04,SSE,164,0.0,0.0,83,0.00,CLR,,0.00,WeatherDisplay:10.37,2013-06-19 12:28:00,
2013-06-19 08:33:00,84.1,77.6,30.04,SSE,164,1.0,2.3,81,0.00,CLR,,0.00,WeatherDisplay:10.37,2013-06-19 12:33:00,
2013-06-19 08:38:00,84.4,77.6,30.03,SSW,207,0.8,2.3,80,0.00,CLR,,0.00,WeatherDisplay:10.37,2013-06-19 12:38:00,
2013-06-19 08:43:00,84.6,77.4,30.03,SE,125,3.2,3.5,79,0.00,CLR,,0.00,WeatherDisplay:10.37,2013-06-19 12:43:00,
2013-06-19 08:48:00,84.4,77.6,30.04,ESE,120,1.6,3.5,80,0.00,CLR,,0.00,WeatherDisplay:10.37,2013-06-19 12:48:00,
2013-06-19 08:53:00,84.5,77.6,30.04,SE,124,3.2,4.6,80,0.00,CLR,,0.00,WeatherDisplay:10.37,2013-06-19 12:53:00,
2013-06-19 08:58:00,84.5,77.3,30.03,ESE,109,2.9,6.9,79,0.00,CLR,,0.00,WeatherDisplay:10.37,2013-06-19 12:58:00,
2013-06-19 09:03:00,84.6,77.4,30.03,South,169,0.9,3.5,79,0.00,CLR,,0.00,WeatherDisplay:10.37,2013-06-19 13:03:00,
2013-06-19 09:08:00,84.7,76.7,30.03,SSE,152,3.5,4.6,77,0.00,CLR,,0.00,WeatherDisplay:10.37,2013-06-19 13:08:00,
2013-06-19 09:13:00,84.4,76.8,30.03,SE,138,2.2,3.5,78,0.00,CLR,,0.00,WeatherDisplay:10.37,2013-06-19 13:13:00,
2013-06-19 09:18:00,84.2,76.2,30.03,South,182,2.7,3.5,77,0.00,CLR,,0.00,WeatherDisplay:10.37,2013-06-19 13:18:00,
2013-06-19 09:23:00,83.9,76.7,30.03,SSE,153,1.1,2.3,79,0.00,CLR,,0.00,WeatherDisplay:10.37,2013-06-19 13:23:00,
2013-06-19 09:28:00,84.0,77.2,30.03,SSE,158,0.0,1.2,80,0.00,CLR,,0.00,WeatherDisplay:10.37,2013-06-19 13:28:00,
2013-06-19 09:33:00,84.7,77.5,30.03,SSE,158,0.5,2.3,79,0.00,CLR,,0.00,WeatherDisplay:10.37,2013-06-19 13:33:00,
2013-06-19 09:38:00,85.3,77.3,30.03,South,179,1.0,2.3,77,0.00,CLR,,0.00,WeatherDisplay:10.37,2013-06-19 13:38:00,
2013-06-19 09:43:00,85.5,77.5,30.03,SSE,165,3.8,4.6,77,0.00,CLR,,0.00,WeatherDisplay:10.37,2013-06-19 13:43:00,
2013-06-19 09:48:00,85.0,76.6,30.03,SE,130,1.3,3.5,76,0.00,CLR,,0.00,WeatherDisplay:10.37,2013-06-19 13:48:00,
2013-06-19 09:53:00,84.6,75.8,30.03,SE,128,3.8,8.1,75,0.00,CLR,,0.00,WeatherDisplay:10.37,2013-06-19 13:53:00,
2013-06-19 09:58:00,84.8,76.0,30.03,SE,146,2.9,4.6,75,0.00,CLR,,0.00,WeatherDisplay:10.37,2013-06-19 13:58:00,
2013-06-19 10:03:00,85.1,76.3,30.02,ESE,122,2.3,5.8,75,0.00,CLR,,0.00,WeatherDisplay:10.37,2013-06-19 14:03:00,
2013-06-19 10:08:00,85.6,77.2,30.02,ESE,117,2.2,3.5,76,0.00,CLR,,0.00,WeatherDisplay:10.37,2013-06-19 14:08:00,
2013-06-19 10:13:00,85.4,76.6,30.02,SSW,205,1.9,4.6,75,0.00,CLR,,0.00,WeatherDisplay:10.37,2013-06-19 14:13:00,
2013-06-19 10:18:00,85.6,76.8,30.03,SSE,168,3.9,5.8,75,0.00,CLR,,0.00,WeatherDisplay:10.37,2013-06-19 14:18:00,
2013-06-19 10:23:00,85.6,76.4,30.02,South,169,3.7,6.9,74,0.00,CLR,,0.00,WeatherDisplay:10.37,2013-06-19 14:23:00,
2013-06-19 10:28:00,85.6,76.8,30.02,SSW,204,1.4,3.5,75,0.00,CLR,,0.00,WeatherDisplay:10.37,2013-06-19 14:28:00,
2013-06-19 10:33:00,85.6,75.9,30.02,SW,223,2.6,4.6,73,0.00,CLR,,0.00,WeatherDisplay:10.37,2013-06-19 14:33:00,
2013-06-19 10:38:00,85.7,76.9,30.02,SSW,213,0.9,3.5,75,0.00,CLR,,0.00,WeatherDisplay:10.37,2013-06-19 14:38:00,
2013-06-19 10:43:00,85.7,76.5,30.02,SW,218,0.4,1.2,74,0.00,CLR,,0.00,WeatherDisplay:10.37,2013-06-19 14:43:00,
2013-06-19 10:48:00,85.6,76.4,30.02,SSE,151,0.6,3.5,74,0.00,CLR,,0.00,WeatherDisplay:10.37,2013-06-19 14:48:00,
2013-06-19 10:53:00,85.5,76.7,30.02,SE,129,2.4,3.5,75,0.00,CLR,,0.00,WeatherDisplay:10.37,2013-06-19 14:53:00,
2013-06-19 10:58:00,85.7,76.0,30.02,SW,215,1.2,3.5,73,0.00,CLR,,0.00,WeatherDisplay:10.37,2013-06-19 14:58:00,
2013-06-19 11:03:00,86.2,76.1,30.02,South,175,3.2,6.9,72,0.00,CLR,,0.00,WeatherDisplay:10.37,2013-06-19 15:03:00,
2013-06-19 11:08:00,86.3,75.4,30.02,ESE,119,3.8,4.6,70,0.00,CLR,,0.00,WeatherDisplay:10.37,2013-06-19 15:08:00,
2013-06-19 11:13:00,86.3,75.8,30.02,SE,146,2.8,3.5,71,0.00,CLR,,0.00,WeatherDisplay:10.37,2013-06-19 15:13:00,
2013-06-19 11:18:00,86.3,75.4,30.02,SE,134,2.4,3.5,70,0.00,CLR,,0.00,WeatherDisplay:10.37,2013-06-19 15:18:00,
2013-06-19 11:23:00,86.4,75.9,30.02,SE,136,2.1,3.5,71,0.00,CLR,,0.00,WeatherDisplay:10.37,2013-06-19 15:23:00,
2013-06-19 11:28:00,86.7,76.2,30.02,ENE,64,2.9,4.6,71,0.00,CLR,,0.00,WeatherDisplay:10.37,2013-06-19 15:28:00,
2013-06-19 11:33:00,87.0,76.0,30.02,SSE,151,5.1,9.2,70,0.00,CLR,,0.00,WeatherDisplay:10.37,2013-06-19 15:33:00,
2013-06-19 11:38:00,87.0,76.0,30.02,SSE,150,3.2,6.0,70,0.00,CLR,,0.00,WeatherDisplay:10.37,2013-06-19 15:38:00,
2013-06-19 11:43:00,87.0,76.5,30.02,South,190,0.3,2.3,71,0.00,CLR,,0.00,WeatherDisplay:10.37,2013-06-19 15:43:00,
2013-06-19 11:48:00,87.4,76.0,30.02,South,175,3.5,5.8,69,0.00,CLR,,0.00,WeatherDisplay:10.37,2013-06-19 15:48:00,
2013-06-19 11:53:00,87.2,75.8,30.02,South,186,0.7,2.3,69,0.00,CLR,,0.00,WeatherDisplay:10.37,2013-06-19 15:53:00,
2013-06-19 11:59:00,86.7,76.2,30.02,SE,127,1.8,6.9,71,0.00,CLR,,0.00,WeatherDisplay:10.37,2013-06-19 15:59:00,
2013-06-19 12:04:00,86.6,76.5,30.02,SSE,160,2.0,3.5,72,0.00,CLR,,0.00,WeatherDisplay:10.37,2013-06-19 16:04:00,
2013-06-19 12:09:00,87.0,76.9,30.02,SSE,148,4.1,10.4,72,0.00,CLR,,0.00,WeatherDisplay:10.37,2013-06-19 16:09:00,
2013-06-19 12:14:00,87.3,76.3,30.02,East,94,3.6,9.2,70,0.00,CLR,,0.00,WeatherDisplay:10.37,2013-06-19 16:14:00,
2013-06-19 12:19:00,87.2,76.6,30.02,ESE,117,8.1,11.5,71,0.00,CLR,,0.00,WeatherDisplay:10.37,2013-06-19 16:19:00,
2013-06-19 12:24:00,87.1,77.4,30.02,SSE,160,5.0,6.9,73,0.00,CLR,,0.00,WeatherDisplay:10.37,2013-06-19 16:24:00,
2013-06-19 12:29:00,87.6,77.5,30.01,ESE,111,4.8,6.9,72,0.00,CLR,,0.00,WeatherDisplay:10.37,2013-06-19 16:29:00,
2013-06-19 12:34:00,87.6,76.6,30.01,ESE,105,7.2,7.2,70,0.00,CLR,,0.00,WeatherDisplay:10.37,2013-06-19 16:34:00,
2013-06-19 12:39:00,87.4,76.4,30.01,SSW,192,5.0,8.1,70,0.00,CLR,,0.00,WeatherDisplay:10.37,2013-06-19 16:39:00,
2013-06-19 12:44:00,87.4,76.8,30.01,ESE,114,5.8,10.4,71,0.00,CLR,,0.00,WeatherDisplay:10.37,2013-06-19 16:44:00,
2013-06-19 12:49:00,86.8,76.3,30.01,East,91,7.6,11.5,71,0.00,CLR,,0.00,WeatherDisplay:10.37,2013-06-19 16:49:00,
2013-06-19 12:54:00,86.6,76.9,30.00,SE,142,5.8,5.8,73,0.00,CLR,,0.00,WeatherDisplay:10.37,2013-06-19 16:54:00,
2013-06-19 12:59:00,86.9,77.2,30.00,ESE,111,7.6,9.2,73,0.00,CLR,,0.00,WeatherDisplay:10.37,2013-06-19 16:59:00,
2013-06-19 13:04:00,87.4,77.3,30.00,ESE,109,5.4,12.0,72,0.00,CLR,,0.00,WeatherDisplay:10.37,2013-06-19 17:04:00,
2013-06-19 13:09:00,87.1,77.0,30.01,SSE,161,3.4,6.9,72,0.00,CLR,,0.00,WeatherDisplay:10.37,2013-06-19 17:09:00,
2013-06-19 13:14:00,87.0,76.5,30.01,ESE,121,3.6,5.8,71,0.00,CLR,,0.00,WeatherDisplay:10.37,2013-06-19 17:14:00,
2013-06-19 13:19:00,86.6,76.5,30.00,SSE,151,3.2,5.8,72,0.00,CLR,,0.00,WeatherDisplay:10.37,2013-06-19 17:19:00,
2013-06-19 13:24:00,86.5,76.4,30.00,ESE,116,3.4,6.9,72,0.00,CLR,,0.00,WeatherDisplay:10.37,2013-06-19 17:24:00,
2013-06-19 13:29:00,86.6,76.5,30.00,ESE,120,2.6,5.0,72,0.00,CLR,,0.00,WeatherDisplay:10.37,2013-06-19 17:29:00,
2013-06-19 13:34:00,86.4,75.5,30.00,ESE,103,4.8,6.9,70,0.00,CLR,,0.00,WeatherDisplay:10.37,2013-06-19 17:34:00,
2013-06-19 13:39:00,86.5,75.5,30.00,ESE,115,4.4,4.4,70,0.00,CLR,,0.00,WeatherDisplay:10.37,2013-06-19 17:39:00,
2013-06-19 13:44:00,86.5,75.1,30.00,SE,125,1.1,3.5,69,0.00,CLR,,0.00,WeatherDisplay:10.37,2013-06-19 17:44:00,
2013-06-19 13:49:00,86.4,74.6,30.00,SE,128,4.3,5.8,68,0.00,CLR,,0.00,WeatherDisplay:10.37,2013-06-19 17:49:00,
2013-06-19 13:54:00,86.3,75.4,30.00,SE,146,4.6,6.9,70,0.00,CLR,,0.00,WeatherDisplay:10.37,2013-06-19 17:54:00,
2013-06-19 13:59:00,86.2,74.8,30.00,ESE,122,3.1,4.6,69,0.00,CLR,,0.00,WeatherDisplay:10.37,2013-06-19 17:59:00,
2013-06-19 14:04:00,86.3,74.9,30.00,SSE,159,0.2,1.2,69,0.00,CLR,,0.00,WeatherDisplay:10.37,2013-06-19 18:04:00,
2013-06-19 14:09:00,86.4,75.5,30.00,SE,131,1.0,2.3,70,0.00,CLR,,0.00,WeatherDisplay:10.37,2013-06-19 18:09:00,
2013-06-19 14:14:00,86.5,75.1,29.99,SE,126,2.8,4.6,69,0.00,CLR,,0.00,WeatherDisplay:10.37,2013-06-19 18:14:00,
2013-06-19 14:19:00,86.6,75.2,29.99,SE,127,2.0,4.6,69,0.00,CLR,,0.00,WeatherDisplay:10.37,2013-06-19 18:19:00,
2013-06-19 14:24:00,86.7,75.7,29.99,ESE,123,3.8,8.1,70,0.00,CLR,,0.00,WeatherDisplay:10.37,2013-06-19 18:24:00,
2013-06-19 14:29:00,86.9,75.9,29.98,SE,132,3.9,4.6,70,0.00,CLR,,0.00,WeatherDisplay:10.37,2013-06-19 18:29:00,
2013-06-19 14:34:00,86.9,75.1,29.98,SE,142,6.6,8.1,68,0.00,CLR,,0.00,WeatherDisplay:10.37,2013-06-19 18:34:00,
2013-06-19 14:39:00,87.1,75.3,29.98,SE,145,3.2,3.5,68,0.00,CLR,,0.00,WeatherDisplay:10.37,2013-06-19 18:39:00,
2013-06-19 14:44:00,87.2,75.8,29.98,South,174,2.1,3.5,69,0.00,CLR,,0.00,WeatherDisplay:10.37,2013-06-19 18:44:00,
2013-06-19 14:49:00,87.1,75.7,29.98,SSE,155,6.3,10.4,69,0.00,CLR,,0.00,WeatherDisplay:10.37,2013-06-19 18:49:00,
2013-06-19 14:54:00,86.9,75.1,29.98,ESE,109,3.7,6.9,68,0.00,CLR,,0.00,WeatherDisplay:10.37,2013-06-19 18:54:00,
2013-06-19 14:59:00,87.0,75.2,29.98,SSE,154,2.5,5.8,68,0.00,CLR,,0.00,WeatherDisplay:10.37,2013-06-19 18:59:00,
2013-06-19 15:04:00,87.1,75.7,29.99,South,186,2.4,3.5,69,0.00,CLR,,0.00,WeatherDisplay:10.37,2013-06-19 19:04:00,
2013-06-19 15:09:00,87.6,76.6,29.98,ESE,123,3.2,6.9,70,0.00,CLR,,0.00,WeatherDisplay:10.37,2013-06-19 19:09:00,
2013-06-19 15:14:00,87.5,75.6,29.99,East,94,3.8,4.6,68,0.00,CLR,,0.00,WeatherDisplay:10.37,2013-06-19 19:14:00,
2013-06-19 15:19:00,87.3,75.9,29.99,ESE,119,1.4,3.5,69,0.00,CLR,,0.00,WeatherDisplay:10.37,2013-06-19 19:19:00,
2013-06-19 15:24:00,87.2,75.8,29.98,SE,144,4.9,8.1,69,0.00,CLR,,0.00,WeatherDisplay:10.37,2013-06-19 19:24:00,
2013-06-19 15:29:00,87.0,75.6,29.99,ESE,112,4.5,8.1,69,0.00,CLR,,0.00,WeatherDisplay:10.37,2013-06-19 19:29:00,
2013-06-19 15:34:00,86.7,76.2,29.99,SSE,157,5.0,5.0,71,0.00,CLR,,0.00,WeatherDisplay:10.37,2013-06-19 19:34:00,
2013-06-19 15:39:00,86.5,76.0,29.98,SE,133,6.1,10.4,71,0.00,CLR,,0.00,WeatherDisplay:10.37,2013-06-19 19:39:00,
2013-06-19 15:44:00,86.2,75.7,29.98,East,101,5.6,8.1,71,0.00,CLR,,0.00,WeatherDisplay:10.37,2013-06-19 19:44:00,
2013-06-19 15:49:00,86.0,75.9,29.98,SSE,148,5.8,9.2,72,0.00,CLR,,0.00,WeatherDisplay:10.37,2013-06-19 19:49:00,
2013-06-19 15:54:00,85.8,75.7,29.98,SSE,149,5.0,8.1,72,0.00,CLR,,0.00,WeatherDisplay:10.37,2013-06-19 19:54:00,
2013-06-19 15:59:00,85.5,75.9,29.98,SE,132,4.8,7.0,73,0.00,CLR,,0.00,WeatherDisplay:10.37,2013-06-19 19:59:00,
2013-06-19 16:04:00,85.4,76.2,29.98,SSE,147,2.8,3.5,74,0.00,CLR,,0.00,WeatherDisplay:10.37,2013-06-19 20:04:00,
2013-06-19 16:09:00,85.2,75.6,29.98,SSE,157,2.5,6.9,73,0.00,CLR,,0.00,WeatherDisplay:10.37,2013-06-19 20:09:00,
2013-06-19 16:14:00,85.2,76.0,29.98,SE,138,3.4,3.5,74,0.00,CLR,,0.00,WeatherDisplay:10.37,2013-06-19 20:14:00,
2013-06-19 16:19:00,85.1,75.9,29.98,East,94,4.4,6.9,74,0.00,CLR,,0.00,WeatherDisplay:10.37,2013-06-19 20:19:00,
2013-06-19 16:24:00,85.0,76.2,29.98,SE,138,4.0,8.0,75,0.00,CLR,,0.00,WeatherDisplay:10.37,2013-06-19 20:24:00,
2013-06-19 16:29:00,85.0,76.6,29.98,ESE,102,2.0,4.6,76,0.00,CLR,,0.00,WeatherDisplay:10.37,2013-06-19 20:29:00,
2013-06-19 16:34:00,85.0,76.2,29.98,South,175,4.8,5.8,75,0.00,CLR,,0.00,WeatherDisplay:10.37,2013-06-19 20:34:00,
2013-06-19 16:39:00,84.9,76.1,29.98,SE,130,4.1,6.0,75,0.00,CLR,,0.00,WeatherDisplay:10.37,2013-06-19 20:39:00,
2013-06-19 16:44:00,85.0,76.2,29.98,ESE,122,3.5,8.1,75,0.00,CLR,,0.00,WeatherDisplay:10.37,2013-06-19 20:44:00,
2013-06-19 16:49:00,85.0,76.6,29.98,ESE,107,2.2,3.5,76,0.00,CLR,,0.00,WeatherDisplay:10.37,2013-06-19 20:49:00,
2013-06-19 16:54:00,85.0,76.2,29.98,SSE,150,5.3,9.2,75,0.00,CLR,,0.00,WeatherDisplay:10.37,2013-06-19 20:54:00,
2013-06-19 16:59:00,85.0,76.6,29.97,SE,127,4.9,6.9,76,0.00,CLR,,0.00,WeatherDisplay:10.37,2013-06-19 20:59:00,
2013-06-19 17:04:00,85.0,76.6,29.97,SE,134,5.9,7.0,76,0.00,CLR,,0.00,WeatherDisplay:10.37,2013-06-19 21:04:00,
2013-06-19 17:09:00,85.0,76.6,29.97,SE,139,3.9,3.9,76,0.00,CLR,,0.00,WeatherDisplay:10.37,2013-06-19 21:09:00,
2013-06-19 17:14:00,84.9,76.9,29.97,SE,134,4.2,5.8,77,0.00,CLR,,0.00,WeatherDisplay:10.37,2013-06-19 21:14:00,
2013-06-19 17:19:00,84.8,76.4,29.98,SSE,159,5.4,6.9,76,0.00,CLR,,0.00,WeatherDisplay:10.37,2013-06-19 21:19:00,
2013-06-19 17:24:00,84.8,76.8,29.98,ESE,112,0.9,4.6,77,0.00,CLR,,0.00,WeatherDisplay:10.37,2013-06-19 21:24:00,
2013-06-19 17:29:00,84.8,76.8,29.98,ESE,115,4.2,8.1,77,0.00,CLR,,0.00,WeatherDisplay:10.37,2013-06-19 21:29:00,
2013-06-19 17:34:00,84.8,76.8,29.98,SE,137,5.4,11.0,77,0.00,CLR,,0.00,WeatherDisplay:10.37,2013-06-19 21:34:00,
2013-06-19 17:39:00,84.8,77.2,29.98,ESE,107,5.9,8.1,78,0.00,CLR,,0.00,WeatherDisplay:10.37,2013-06-19 21:39:00,
2013-06-19 17:45:00,84.8,76.8,29.98,SE,142,3.0,4.6,77,0.00,CLR,,0.00,WeatherDisplay:10.37,2013-06-19 21:45:00,
2013-06-19 17:50:00,84.8,77.2,29.99,ESE,117,4.7,9.2,78,0.00,CLR,,0.00,WeatherDisplay:10.37,2013-06-19 21:50:00,
2013-06-19 17:55:00,84.6,77.0,29.99,SE,145,4.7,6.9,78,0.00,CLR,,0.00,WeatherDisplay:10.37,2013-06-19 21:55:00,
2013-06-19 17:59:00,84.5,76.9,29.99,SSE,149,1.1,3.5,78,0.00,CLR,,0.00,WeatherDisplay:10.37,2013-06-19 21:59:00,
2013-06-19 18:04:00,84.4,76.8,29.99,SSE,155,1.5,3.5,78,0.00,CLR,,0.00,WeatherDisplay:10.37,2013-06-19 22:04:00,
2013-06-19 18:10:00,84.3,77.1,29.99,SE,132,0.7,3.5,79,0.00,CLR,,0.00,WeatherDisplay:10.37,2013-06-19 22:10:00,
2013-06-19 18:15:00,84.1,76.5,29.99,ENE,74,4.5,6.9,78,0.00,CLR,,0.00,WeatherDisplay:10.37,2013-06-19 22:15:00,
2013-06-19 18:20:00,84.1,76.9,29.99,SE,140,2.9,6.0,79,0.00,CLR,,0.00,WeatherDisplay:10.37,2013-06-19 22:20:00,
2013-06-19 18:25:00,84.0,76.8,29.99,SSE,165,3.1,5.8,79,0.00,CLR,,0.00,WeatherDisplay:10.37,2013-06-19 22:25:00,
2013-06-19 18:30:00,83.9,76.7,30.00,SE,139,2.1,3.5,79,0.00,CLR,,0.00,WeatherDisplay:10.37,2013-06-19 22:30:00,
2013-06-19 18:35:00,83.9,76.7,30.00,SE,137,1.5,3.5,79,0.00,CLR,,0.00,WeatherDisplay:10.37,2013-06-19 22:35:00,
2013-06-19 18:40:00,83.9,76.7,30.00,SSE,161,0.0,0.0,79,0.00,CLR,,0.00,WeatherDisplay:10.37,2013-06-19 22:40:00,
2013-06-19 18:45:00,83.8,77.0,30.00,SSE,159,0.6,1.2,80,0.00,CLR,,0.00,WeatherDisplay:10.37,2013-06-19 22:45:00,
2013-06-19 18:50:00,83.7,76.9,30.01,SSE,159,0.2,2.0,80,0.00,CLR,,0.00,WeatherDisplay:10.37,2013-06-19 22:50:00,
2013-06-19 18:55:00,83.8,77.0,30.00,SSE,159,0.9,2.3,80,0.00,CLR,,0.00,WeatherDisplay:10.37,2013-06-19 22:55:00,
2013-06-19 19:00:00,83.7,76.9,30.00,SSE,162,1.9,3.5,80,0.00,CLR,,0.00,WeatherDisplay:10.37,2013-06-19 23:00:00,
2013-06-19 19:05:00,83.6,76.8,30.00,SSE,161,1.4,3.5,80,0.00,CLR,,0.00,WeatherDisplay:10.37,2013-06-19 23:05:00,
2013-06-19 19:10:00,83.6,76.8,30.01,SSE,161,2.0,2.3,80,0.00,CLR,,0.00,WeatherDisplay:10.37,2013-06-19 23:10:00,
2013-06-19 19:15:00,83.6,76.8,30.00,SE,126,1.7,3.5,80,0.00,CLR,,0.00,WeatherDisplay:10.37,2013-06-19 23:15:00,
2013-06-19 19:20:00,83.5,76.7,30.00,ESE,112,2.8,3.5,80,0.00,CLR,,0.00,WeatherDisplay:10.37,2013-06-19 23:20:00,
2013-06-19 19:25:00,83.5,76.7,30.01,ESE,110,0.7,3.5,80,0.00,CLR,,0.00,WeatherDisplay:10.37,2013-06-19 23:25:00,
2013-06-19 19:30:00,83.4,76.2,30.01,WSW,240,1.0,3.0,79,0.00,CLR,,0.00,WeatherDisplay:10.37,2013-06-19 23:30:00,
2013-06-19 19:35:00,82.8,74.5,30.01,West,281,2.0,5.8,76,0.00,CLR,,0.00,WeatherDisplay:10.37,2013-06-19 23:35:00,
2013-06-19 19:40:00,82.0,73.7,30.00,WNW,302,4.2,4.6,76,0.00,CLR,,0.00,WeatherDisplay:10.37,2013-06-19 23:40:00,
2013-06-19 19:45:00,81.6,73.7,30.01,NW,314,0.0,1.2,77,0.00,CLR,,0.00,WeatherDisplay:10.37,2013-06-19 23:45:00,
2013-06-19 19:50:00,81.3,73.8,30.01,WNW,293,1.5,3.5,78,0.00,CLR,,0.00,WeatherDisplay:10.37,2013-06-19 23:50:00,
2013-06-19 19:55:00,81.2,73.7,30.01,WNW,294,1.4,3.5,78,0.00,CLR,,0.00,WeatherDisplay:10.37,2013-06-19 23:55:00,
2013-06-19 20:00:00,80.9,73.0,30.00,WSW,252,0.7,2.3,77,0.00,CLR,,0.00,WeatherDisplay:10.37,2013-06-20 00:00:00,
2013-06-19 20:05:00,80.6,72.7,30.01,WNW,288,0.4,1.2,77,0.00,CLR,,0.00,WeatherDisplay:10.37,2013-06-20 00:05:00,
2013-06-19 20:10:00,80.5,72.6,30.01,WNW,290,0.8,0.0,77,0.00,CLR,,0.00,WeatherDisplay:10.37,2013-06-20 00:10:00,
2013-06-19 20:15:00,80.3,72.4,30.00,WNW,290,0.0,0.0,77,0.00,CLR,,0.00,WeatherDisplay:10.37,2013-06-20 00:15:00,
2013-06-19 20:20:00,80.2,72.7,30.01,WNW,290,0.0,0.0,78,0.00,CLR,,0.00,WeatherDisplay:10.37,2013-06-20 00:20:00,
2013-06-19 20:25:00,80.0,72.5,30.01,WNW,290,0.0,0.0,78,0.00,CLR,,0.00,WeatherDisplay:10.37,2013-06-20 00:25:00,
2013-06-19 20:30:00,80.0,73.6,30.00,WNW,290,0.0,0.0,81,0.00,CLR,,0.00,WeatherDisplay:10.37,2013-06-20 00:30:00,
2013-06-19 20:35:00,79.6,73.6,30.00,WNW,290,0.1,1.2,82,0.00,CLR,,0.00,WeatherDisplay:10.37,2013-06-20 00:35:00,
2013-06-19 20:40:00,79.2,72.9,30.01,WNW,290,0.0,0.0,81,0.00,CLR,,0.00,WeatherDisplay:10.37,2013-06-20 00:40:00,
2013-06-19 20:45:00,79.3,73.7,30.01,WNW,290,0.0,0.0,83,0.00,CLR,,0.00,WeatherDisplay:10.37,2013-06-20 00:45:00,
2013-06-19 20:50:00,79.2,73.6,30.01,WNW,290,0.0,0.0,83,0.00,CLR,,0.00,WeatherDisplay:10.37,2013-06-20 00:50:00,
2013-06-19 20:55:00,79.1,73.5,30.01,WNW,290,0.0,0.0,83,0.00,CLR,,0.00,WeatherDisplay:10.37,2013-06-20 00:55:00,
2013-06-19 21:00:00,79.1,73.8,30.01,WNW,290,0.0,0.0,84,0.00,CLR,,0.00,WeatherDisplay:10.37,2013-06-20 01:00:00,
2013-06-19 21:05:00,79.0,73.7,30.02,WNW,290,0.0,0.0,84,0.00,CLR,,0.00,WeatherDisplay:10.37,2013-06-20 01:05:00,
2013-06-19 21:10:00,79.1,74.2,30.02,WNW,290,0.0,0.0,85,0.00,CLR,,0.00,WeatherDisplay:10.37,2013-06-20 01:10:00,
2013-06-19 21:15:00,79.1,74.2,30.02,WNW,290,0.0,0.0,85,0.00,CLR,,0.00,WeatherDisplay:10.37,2013-06-20 01:15:00,
2013-06-19 21:20:00,79.1,74.5,30.02,WNW,290,0.0,0.0,86,0.00,CLR,,0.00,WeatherDisplay:10.37,2013-06-20 01:20:00,
2013-06-19 21:25:00,79.0,74.5,30.02,WNW,290,0.0,0.0,86,0.00,CLR,,0.00,WeatherDisplay:10.37,2013-06-20 01:25:00,
2013-06-19 21:30:00,78.9,74.4,30.03,WNW,290,0.0,0.0,86,0.00,CLR,,0.00,WeatherDisplay:10.37,2013-06-20 01:30:00,
2013-06-19 21:35:00,78.8,74.6,30.03,WNW,290,0.0,0.0,87,0.00,CLR,,0.00,WeatherDisplay:10.37,2013-06-20 01:35:00,
2013-06-19 21:40:00,78.8,74.6,30.03,WNW,290,0.0,0.0,87,0.00,CLR,,0.00,WeatherDisplay:10.37,2013-06-20 01:40:00,
2013-06-19 21:45:00,78.8,74.6,30.03,WNW,290,0.0,0.0,87,0.00,CLR,,0.00,WeatherDisplay:10.37,2013-06-20 01:45:00,
2013-06-19 21:50:00,78.8,74.6,30.03,WNW,290,0.0,0.0,87,0.00,CLR,,0.00,WeatherDisplay:10.37,2013-06-20 01:50:00,
2013-06-19 21:55:00,78.8,74.3,30.03,WNW,290,0.0,0.0,86,0.00,CLR,,0.00,WeatherDisplay:10.37,2013-06-20 01:55:00,
2013-06-19 22:00:00,78.8,74.6,30.03,WNW,290,0.0,0.0,87,0.00,CLR,,0.00,WeatherDisplay:10.37,2013-06-20 02:00:00,
2013-06-19 22:05:00,79.0,75.1,30.03,WNW,290,0.0,0.0,88,0.00,CLR,,0.00,WeatherDisplay:10.37,2013-06-20 02:05:00,
2013-06-19 22:10:00,79.1,75.6,30.03,WNW,290,0.0,0.0,89,0.00,CLR,,0.00,WeatherDisplay:10.37,2013-06-20 02:10:00,
2013-06-19 22:15:00,79.2,75.7,30.03,WNW,290,0.0,0.0,89,0.00,CLR,,0.00,WeatherDisplay:10.37,2013-06-20 02:15:00,
2013-06-19 22:20:00,79.3,75.8,30.04,WNW,290,0.0,0.0,89,0.00,CLR,,0.00,WeatherDisplay:10.37,2013-06-20 02:20:00,
2013-06-19 22:25:00,79.4,76.2,30.03,WNW,290,0.0,0.0,90,0.00,CLR,,0.00,WeatherDisplay:10.37,2013-06-20 02:25:00,
2013-06-19 22:30:00,79.4,76.2,30.03,WNW,290,0.0,0.0,90,0.00,CLR,,0.00,WeatherDisplay:10.37,2013-06-20 02:30:00,
2013-06-19 22:35:00,79.4,75.9,30.03,WNW,290,0.1,0.0,89,0.00,CLR,,0.00,WeatherDisplay:10.37,2013-06-20 02:35:00,
2013-06-19 22:40:00,79.4,75.9,30.03,WNW,290,0.8,1.2,89,0.00,CLR,,0.00,WeatherDisplay:10.37,2013-06-20 02:40:00,
2013-06-19 22:45:00,79.5,75.6,30.03,WNW,290,0.8,2.3,88,0.00,CLR,,0.00,WeatherDisplay:10.37,2013-06-20 02:45:00,
2013-06-19 22:50:00,79.8,75.6,30.03,SE,141,2.3,3.5,87,0.00,CLR,,0.00,WeatherDisplay:10.37,2013-06-20 02:50:00,
2013-06-19 22:55:00,80.2,76.0,30.03,ESE,123,2.6,4.6,87,0.00,CLR,,0.00,WeatherDisplay:10.37,2013-06-20 02:55:00,
2013-06-19 23:00:00,80.5,75.6,30.03,SE,127,1.8,2.3,85,0.00,CLR,,0.00,WeatherDisplay:10.37,2013-06-20 03:00:00,
2013-06-19 23:05:00,80.8,75.9,30.03,SE,127,0.8,3.5,85,0.00,CLR,,0.00,WeatherDisplay:10.37,2013-06-20 03:05:00,
2013-06-19 23:10:00,81.0,76.1,30.03,SE,136,1.4,3.5,85,0.00,CLR,,0.00,WeatherDisplay:10.37,2013-06-20 03:10:00,
2013-06-19 23:15:00,81.1,76.2,30.03,ESE,112,2.4,5.0,85,0.00,CLR,,0.00,WeatherDisplay:10.37,2013-06-20 03:15:00,
2013-06-19 23:20:00,81.2,76.3,30.03,ESE,121,2.0,3.5,85,0.00,CLR,,0.00,WeatherDisplay:10.37,2013-06-20 03:20:00,
2013-06-19 23:25:00,81.3,76.0,30.02,SE,128,1.9,3.5,84,0.00,CLR,,0.00,WeatherDisplay:10.37,2013-06-20 03:25:00,
2013-06-19 23:30:00,81.4,76.5,30.03,ESE,109,0.7,2.3,85,0.00,CLR,,0.00,WeatherDisplay:10.37,2013-06-20 03:30:00,
2013-06-19 23:35:00,81.4,76.5,30.03,ESE,112,1.0,1.2,85,0.00,CLR,,0.00,WeatherDisplay:10.37,2013-06-20 03:35:00,
2013-06-19 23:40:00,81.4,76.5,30.03,ESE,112,0.2,1.2,85,0.00,CLR,,0.00,WeatherDisplay:10.37,2013-06-20 03:40:00,
2013-06-19 23:45:00,81.4,76.5,30.03,ESE,112,1.0,1.2,85,0.00,CLR,,0.00,WeatherDisplay:10.37,2013-06-20 03:45:00,
2013-06-19 23:50:00,81.4,76.1,30.03,ESE,112,0.4,1.2,84,0.00,CLR,,0.00,WeatherDisplay:10.37,2013-06-20 03:50:00,
2013-06-19 23:55:00,81.3,76.0,30.03,ESE,112,0.0,1.2,84,0.00,CLR,,0.00,WeatherDisplay:10.37,2013-06-20 03:55:00,